Time;durP1;ratioP1;P1;durP2;ratioP2;P2;SDS_P1;SDS_P2;PMS_P1;PMS_P2;Temp;Humidity;BMP_temperature;BMP_pressure;BME280_temperature;BME280_humidity;BME280_pressure;Samples;Min_cycle;Max_cycle;Signal;HPM_P1;HPM_P2
2023/05/08 00:08:33;;;;;;;16.40;14.80;;;;;;;11.54;65.33;100948.44;20999694;28;20249;-81
2023/05/08 00:18:36;;;;;;;15.70;14.13;;;;;;;11.43;65.06;100944.28;20994249;28;20288;-80
2023/05/08 00:28:38;;;;;;;15.75;14.20;;;;;;;11.50;64.32;100946.63;21013171;28;20588;-80
2023/05/08 00:38:40;;;;;;;16.92;15.23;;;;;;;11.50;64.57;100941.81;21024583;28;20215;-80
2023/05/08 00:48:43;;;;;;;15.98;14.40;;;;;;;10.91;66.68;100947.06;20992812;28;20227;-80
2023/05/08 00:58:46;;;;;;;16.23;14.52;;;;;;;10.83;66.40;100945.06;21030671;28;20668;-80
2023/05/08 01:08:49;;;;;;;15.55;13.98;;;;;;;10.70;67.63;100943.22;21012200;28;20191;-80
2023/05/08 01:19:00;;;;;;;17.17;15.57;;;;;;;10.80;66.83;100937.25;20983814;28;20495;-80
2023/05/08 01:29:25;;;;;;;16.10;14.25;;;;;;;10.95;66.09;100953.72;20993839;28;20195;-81
2023/05/08 01:39:41;;;;;;;14.52;13.02;;;;;;;11.03;65.25;100954.91;20996608;28;20257;-81
2023/05/08 01:49:48;;;;;;;14.38;12.75;;;;;;;10.99;64.77;100953.91;20987599;28;20634;-81
2023/05/08 01:59:53;;;;;;;14.15;12.80;;;;;;;10.81;64.53;100953.03;20970206;28;20288;-80
2023/05/08 02:09:56;;;;;;;14.15;12.85;;;;;;;10.75;65.80;100947.84;20998128;28;20595;-81
2023/05/08 02:20:00;;;;;;;14.68;13.23;;;;;;;10.75;65.72;100951.50;21013037;28;20222;-80
2023/05/08 02:30:03;;;;;;;14.25;12.77;;;;;;;10.63;66.03;100963.44;21008052;28;20191;-80
2023/05/08 02:40:06;;;;;;;14.25;12.95;;;;;;;10.62;65.38;100963.78;21034937;28;20219;-80
2023/05/08 02:50:17;;;;;;;14.67;13.17;;;;;;;10.39;68.25;100974.28;21016256;28;20256;-81
2023/05/08 03:00:26;;;;;;;14.57;13.00;;;;;;;10.09;68.14;100972.31;21009945;28;20276;-81
2023/05/08 03:10:32;;;;;;;15.35;13.80;;;;;;;10.15;69.30;100973.84;20990277;28;20260;-81
2023/05/08 03:20:37;;;;;;;15.13;13.63;;;;;;;10.14;68.41;100964.56;21039206;28;20515;-81
2023/05/08 03:30:41;;;;;;;14.20;12.97;;;;;;;10.33;67.78;100969.13;21046138;28;20232;-81
2023/05/08 03:40:48;;;;;;;14.67;13.37;;;;;;;10.10;68.07;100971.16;21014552;28;20696;-81
2023/05/08 03:50:50;;;;;;;15.40;13.93;;;;;;;10.22;68.06;100960.94;20970806;28;20207;-81
2023/05/08 04:01:07;;;;;;;15.82;14.32;;;;;;;9.80;70.65;100964.38;20985791;28;20557;-81
2023/05/08 04:11:26;;;;;;;14.97;13.67;;;;;;;10.07;68.85;100957.72;20966862;28;20198;-80
2023/05/08 04:21:31;;;;;;;15.82;14.32;;;;;;;10.13;69.23;100965.72;20960526;28;20476;-79
2023/05/08 04:31:34;;;;;;;16.42;14.63;;;;;;;10.20;68.45;100971.72;20983630;28;20203;-77
2023/05/08 04:41:37;;;;;;;16.75;14.90;;;;;;;10.35;68.15;100973.28;20958963;28;20285;-78
2023/05/08 04:51:39;;;;;;;15.85;14.02;;;;;;;10.60;67.65;100975.38;20977038;28;20561;-79
2023/05/08 05:01:42;;;;;;;17.25;13.27;;;;;;;11.12;66.42;100980.34;20984579;28;20498;-84
2023/05/08 05:11:44;;;;;;;16.57;14.07;;;;;;;11.22;64.53;101002.63;20972505;28;20253;-78
2023/05/08 05:21:47;;;;;;;18.83;13.63;;;;;;;11.13;65.68;101004.59;20985111;28;20260;-78
2023/05/08 05:31:50;;;;;;;16.77;13.27;;;;;;;10.85;66.29;101016.19;20970574;28;20700;-79
2023/05/08 05:41:52;;;;;;;18.60;14.55;;;;;;;10.64;66.67;101020.75;21043496;28;20242;-80
2023/05/08 05:51:54;;;;;;;28.80;14.02;;;;;;;11.31;65.15;101020.44;20958503;28;20272;-79
2023/05/08 06:01:56;;;;;;;20.98;14.40;;;;;;;11.94;62.35;101025.44;20978846;28;20492;-79
2023/05/08 06:11:58;;;;;;;19.85;14.32;;;;;;;12.05;62.83;101028.75;20964769;28;20233;-79
2023/05/08 06:22:01;;;;;;;22.00;13.75;;;;;;;11.91;65.22;101022.44;20962489;28;20187;-77
2023/05/08 06:32:03;;;;;;;18.75;14.63;;;;;;;12.63;62.28;101024.44;20967462;28;20504;-78
2023/05/08 06:42:08;;;;;;;18.58;13.63;;;;;;;12.20;65.41;101028.25;20990044;28;20215;-80
2023/05/08 06:52:14;;;;;;;23.63;13.63;;;;;;;12.11;68.04;101030.25;20970231;28;20511;-79
2023/05/08 07:02:16;;;;;;;14.98;13.23;;;;;;;12.90;65.94;101012.66;20978171;28;20549;-80
2023/05/08 07:12:18;;;;;;;18.45;14.32;;;;;;;12.60;67.28;101019.44;20966627;28;20623;-81
2023/05/08 07:22:20;;;;;;;16.40;14.20;;;;;;;13.72;65.02;101016.72;20973636;28;20191;-79
2023/05/08 07:32:23;;;;;;;14.32;12.80;;;;;;;13.88;64.77;101008.44;20976495;28;20273;-81
2023/05/08 07:42:25;;;;;;;10.65;7.85;;;;;;;14.02;64.11;101002.47;20987882;28;20573;-81
2023/05/08 07:52:28;;;;;;;9.50;7.53;;;;;;;13.71;64.70;101020.78;20986719;28;20219;-80
2023/05/08 08:02:30;;;;;;;7.25;6.40;;;;;;;14.26;62.75;101022.41;20965585;28;20191;-81
2023/05/08 08:12:32;;;;;;;7.22;5.10;;;;;;;14.61;61.42;101022.88;20960796;28;20207;-80
2023/05/08 08:22:36;;;;;;;5.55;4.95;;;;;;;14.37;60.62;101032.13;20982333;28;20195;-81
2023/05/08 08:32:38;;;;;;;7.25;6.43;;;;;;;14.01;63.36;101037.69;20994151;28;20207;-81
2023/05/08 08:42:40;;;;;;;8.02;7.22;;;;;;;14.96;61.35;101037.44;20976261;28;20227;-80
2023/05/08 08:53:07;;;;;;;9.27;8.13;;;;;;;14.74;62.71;101040.78;20991518;28;20223;-81
2023/05/08 09:03:09;;;;;;;6.22;5.55;;;;;;;14.63;62.09;101034.69;20976804;28;20187;-79
2023/05/08 09:13:12;;;;;;;7.32;6.07;;;;;;;14.78;61.56;101033.16;20997094;28;20516;-79
2023/05/08 09:23:16;;;;;;;4.82;4.35;;;;;;;15.37;59.13;101038.41;20958243;28;20195;-80
2023/05/08 09:33:19;;;;;;;5.50;3.85;;;;;;;15.29;58.47;101033.66;20997258;28;20547;-81
2023/05/08 09:43:21;;;;;;;6.50;4.53;;;;;;;15.52;57.67;101040.50;20992792;28;20222;-80
2023/05/08 09:53:30;;;;;;;6.20;5.38;;;;;;;15.31;60.24;101039.81;20991787;28;20219;-82
2023/05/08 10:03:48;;;;;;;7.03;5.05;;;;;;;14.77;61.28;101051.41;20962271;28;20190;-79
2023/05/08 10:13:50;;;;;;;5.85;4.55;;;;;;;15.05;59.80;101046.69;20993816;28;20217;-80
2023/05/08 10:23:55;;;;;;;7.60;3.55;;;;;;;15.09;59.33;101063.88;20973951;28;20199;-80
2023/05/08 10:34:00;;;;;;;3.95;3.25;;;;;;;15.04;59.14;101058.41;20977747;28;20272;-80
2023/05/08 10:44:03;;;;;;;3.00;2.80;;;;;;;14.56;60.42;101057.19;20945265;28;20227;-80
2023/05/08 10:54:34;;;;;;;4.63;3.20;;;;;;;15.22;59.20;101048.47;20996006;28;20728;-79
2023/05/08 11:04:37;;;;;;;3.72;2.65;;;;;;;15.41;58.69;101036.47;20956158;28;20237;-81
2023/05/08 11:14:41;;;;;;;4.38;2.85;;;;;;;15.13;59.31;101031.53;20952685;28;20649;-80
2023/05/08 11:24:53;;;;;;;2.80;2.60;;;;;;;15.63;59.96;101016.03;20974171;28;20591;-79
2023/05/08 11:34:56;;;;;;;4.95;2.92;;;;;;;15.39;60.89;101013.28;20987337;28;20222;-79
2023/05/08 11:45:09;;;;;;;3.65;2.90;;;;;;;15.69;59.70;101014.59;20957330;28;20291;-81
2023/05/08 11:55:14;;;;;;;3.45;3.05;;;;;;;15.13;58.84;101017.31;20966205;28;20226;-79
2023/05/08 12:05:25;;;;;;;2.85;2.60;;;;;;;15.92;57.56;101012.84;20967505;28;20204;-79
2023/05/08 12:15:28;;;;;;;4.25;3.40;;;;;;;15.71;57.24;101009.38;20976484;28;20272;-80
2023/05/08 12:25:30;;;;;;;6.00;3.25;;;;;;;16.80;55.51;101001.44;20980128;28;20260;-79
2023/05/08 12:35:32;;;;;;;5.53;3.10;;;;;;;16.28;56.29;101005.34;20959506;28;20212;-80
2023/05/08 12:45:38;;;;;;;4.05;2.75;;;;;;;16.49;54.95;101002.22;20980173;28;20223;-81
2023/05/08 12:55:52;;;;;;;3.53;2.35;;;;;;;16.76;50.82;100997.66;20968036;28;20215;-80
2023/05/08 13:05:55;;;;;;;3.53;2.47;;;;;;;16.80;50.21;100984.31;20969269;28;20244;-80
2023/05/08 13:16:01;;;;;;;2.65;2.45;;;;;;;16.50;51.16;100981.91;20949457;28;20219;-80
2023/05/08 13:26:05;;;;;;;2.45;2.17;;;;;;;16.39;51.04;100983.66;20959244;28;20213;-80
2023/05/08 13:36:07;;;;;;;4.00;2.58;;;;;;;16.46;50.67;100975.28;20990680;28;20268;-79
2023/05/08 13:46:09;;;;;;;4.50;4.05;;;;;;;16.32;51.23;100969.19;20999849;28;20249;-79
2023/05/08 13:56:11;;;;;;;5.20;3.17;;;;;;;16.85;50.55;100953.47;20988096;28;20237;-79
2023/05/08 14:06:13;;;;;;;4.15;3.78;;;;;;;16.75;52.12;100953.22;20980420;28;20183;-80
2023/05/08 14:16:15;;;;;;;3.47;3.00;;;;;;;16.87;52.46;100939.69;20985957;28;20281;-80
2023/05/08 14:26:18;;;;;;;3.67;3.35;;;;;;;17.11;52.84;100927.19;20991217;28;20195;-80
2023/05/08 14:36:20;;;;;;;6.55;3.92;;;;;;;17.55;50.64;100924.09;20986682;28;20211;-79
2023/05/08 14:46:23;;;;;;;4.63;3.58;;;;;;;17.35;50.71;100925.31;20996491;28;20273;-80
2023/05/08 14:56:25;;;;;;;6.63;4.15;;;;;;;17.49;51.21;100931.31;20972162;28;20516;-80
2023/05/08 15:06:31;;;;;;;4.25;3.83;;;;;;;16.87;53.48;100927.44;21001954;28;20199;-79
2023/05/08 15:16:33;;;;;;;8.00;4.35;;;;;;;16.86;52.79;100920.09;20972731;28;20740;-80
2023/05/08 15:26:36;;;;;;;4.50;4.05;;;;;;;16.67;51.23;100918.03;21003969;28;20588;-79
2023/05/08 15:36:38;;;;;;;4.57;4.18;;;;;;;17.11;50.28;100907.22;21006803;28;20245;-80
2023/05/08 15:46:40;;;;;;;5.75;4.45;;;;;;;17.09;50.96;100905.97;20985258;28;20288;-79
2023/05/08 15:56:42;;;;;;;8.40;7.60;;;;;;;17.27;49.68;100910.84;20970405;28;20222;-78
2023/05/08 16:06:44;;;;;;;7.40;4.95;;;;;;;17.35;49.70;100902.50;20995015;28;20199;-80
2023/05/08 16:16:46;;;;;;;10.02;4.10;;;;;;;17.62;49.10;100893.66;20983092;28;20617;-80
2023/05/08 16:26:48;;;;;;;6.72;5.40;;;;;;;17.64;48.56;100887.56;20982789;28;20187;-80
2023/05/08 16:36:50;;;;;;;5.10;4.55;;;;;;;17.72;48.67;100877.13;21006979;28;20270;-80
2023/05/08 16:46:53;;;;;;;5.22;4.45;;;;;;;17.44;47.55;100878.22;20994630;28;20263;-80
2023/05/08 16:56:55;;;;;;;5.97;4.88;;;;;;;17.08;50.02;100862.34;20994540;28;20512;-81
2023/05/08 17:06:58;;;;;;;5.00;4.45;;;;;;;17.21;50.26;100852.44;20995181;28;20191;-81
2023/05/08 17:17:00;;;;;;;5.85;4.70;;;;;;;17.09;50.60;100861.16;21001240;28;20223;-79
2023/05/08 17:27:07;;;;;;;5.47;4.97;;;;;;;17.04;51.77;100858.59;20998901;28;20212;-81
2023/05/08 17:37:10;;;;;;;5.35;4.85;;;;;;;16.55;54.79;100870.47;20986313;28;20546;-80
2023/05/08 17:47:13;;;;;;;7.57;5.13;;;;;;;16.34;55.74;100887.03;20976167;28;20528;-79
2023/05/08 17:57:15;;;;;;;6.25;5.35;;;;;;;16.75;54.64;100867.69;20990508;28;20241;-81
2023/05/08 18:07:17;;;;;;;7.13;5.70;;;;;;;15.96;58.49;100878.31;20950642;28;20643;-81
2023/05/08 18:17:21;;;;;;;6.03;5.53;;;;;;;16.62;55.57;100870.66;20999834;28;20215;-81
2023/05/08 18:27:23;;;;;;;8.02;6.47;;;;;;;16.52;56.43;100871.22;20966692;28;20187;-81
2023/05/08 18:37:25;;;;;;;7.80;6.10;;;;;;;15.80;57.69;100890.47;20979804;28;20272;-81
2023/05/08 18:47:27;;;;;;;6.75;6.05;;;;;;;16.25;58.21;100886.41;20971330;28;20253;-84
2023/05/08 18:57:29;;;;;;;11.50;7.97;;;;;;;16.21;57.74;100897.69;20991369;28;20218;-81
2023/05/08 19:07:31;;;;;;;6.10;5.13;;;;;;;15.90;56.40;100895.66;20993674;28;20240;-80
2023/05/08 19:17:35;;;;;;;4.28;3.88;;;;;;;16.13;54.49;100895.03;20993963;28;20227;-80
2023/05/08 19:27:37;;;;;;;6.03;4.95;;;;;;;15.70;55.00;100888.16;20998832;28;20195;-80
2023/05/08 19:37:40;;;;;;;3.22;2.92;;;;;;;15.67;54.06;100883.19;20998717;28;20214;-79
2023/05/08 19:47:47;;;;;;;3.45;3.17;;;;;;;15.69;54.46;100889.34;20956009;28;20224;-79
2023/05/08 19:57:50;;;;;;;4.55;2.85;;;;;;;15.55;55.32;100886.91;20910640;28;20265;-80
2023/05/08 20:07:53;;;;;;;3.65;3.20;;;;;;;15.07;56.97;100872.88;20908718;28;20200;-79
2023/05/08 20:17:55;;;;;;;4.63;3.70;;;;;;;15.16;55.80;100868.69;20929306;28;20224;-80
2023/05/08 20:27:57;;;;;;;4.43;3.40;;;;;;;15.34;55.42;100862.72;20928078;28;20258;-81
2023/05/08 20:37:59;;;;;;;4.45;4.00;;;;;;;14.70;57.94;100863.63;20936139;28;20216;-80
2023/05/08 20:48:01;;;;;;;4.30;3.92;;;;;;;14.84;57.41;100869.75;20994926;28;20281;-80
2023/05/08 20:58:03;;;;;;;5.53;3.72;;;;;;;14.74;58.83;100859.72;20978334;28;20215;-80
2023/05/08 21:08:07;;;;;;;8.95;4.45;;;;;;;14.57;59.04;100842.09;21010693;28;20195;-79
2023/05/08 21:18:10;;;;;;;4.78;4.30;;;;;;;14.46;58.81;100830.34;21017208;28;20214;-80
2023/05/08 21:28:13;;;;;;;6.53;5.03;;;;;;;14.73;57.60;100841.00;21012239;28;20195;-78
2023/05/08 21:38:16;;;;;;;5.70;5.20;;;;;;;14.54;58.22;100829.41;20988056;28;20223;-80
2023/05/08 21:48:18;;;;;;;5.10;4.40;;;;;;;14.47;58.29;100815.78;21016983;28;20218;-80
2023/05/08 21:58:20;;;;;;;6.07;4.72;;;;;;;14.51;58.05;100819.59;20998767;28;20210;-81
2023/05/08 22:08:22;;;;;;;4.85;4.38;;;;;;;14.32;59.17;100816.53;21011445;28;20195;-80
2023/05/08 22:18:24;;;;;;;8.40;4.22;;;;;;;14.02;60.82;100806.59;21009108;28;20269;-81
2023/05/08 22:28:26;;;;;;;8.15;5.47;;;;;;;14.07;59.93;100800.69;21003942;28;20196;-81
2023/05/08 22:38:28;;;;;;;5.90;5.30;;;;;;;13.56;62.41;100796.47;20992915;28;20273;-81
2023/05/08 22:48:30;;;;;;;5.65;4.97;;;;;;;13.77;61.74;100788.72;20998992;28;20278;-80
2023/05/08 22:58:32;;;;;;;6.25;5.68;;;;;;;13.74;60.26;100781.69;20964603;28;20249;-79
2023/05/08 23:08:34;;;;;;;8.57;6.63;;;;;;;13.71;59.61;100776.75;21000728;28;20226;-81
2023/05/08 23:18:36;;;;;;;7.25;6.45;;;;;;;14.09;58.97;100764.25;21011389;28;20222;-80
2023/05/08 23:28:38;;;;;;;8.27;7.07;;;;;;;13.36;61.05;100752.81;21003634;28;20191;-80
2023/05/08 23:38:40;;;;;;;8.88;8.02;;;;;;;13.37;62.10;100731.78;21004883;28;20554;-78
2023/05/08 23:48:42;;;;;;;9.10;8.20;;;;;;;13.54;61.26;100719.41;21015959;28;20291;-80
2023/05/08 23:58:45;;;;;;;9.38;7.13;;;;;;;13.73;60.49;100706.25;21027263;28;20284;-80
